Time;durP1;ratioP1;P1;durP2;ratioP2;P2;SDS_P1;SDS_P2;PMS_P1;PMS_P2;Temp;Humidity;BMP_temperature;BMP_pressure;BME280_temperature;BME280_humidity;BME280_pressure;Samples;Min_cycle;Max_cycle;Signal;HPM_P1;HPM_P2
2021/11/10 00:03:32;;;;;;;;;;;10.40;99.90;;;;;;8373153;28;19927;-71
2021/11/10 00:07:34;;;;;;;18.70;7.53;;;10.40;99.90;;;;;;8370770;28;19920;-72
2021/11/10 00:11:36;;;;;;;15.25;6.68;;;10.40;99.90;;;;;;8373387;28;20041;-72
2021/11/10 00:15:38;;;;;;;14.73;6.78;;;10.40;99.90;;;;;;8364552;28;20083;-72
2021/11/10 00:19:40;;;;;;;18.52;7.03;;;10.40;99.90;;;;;;8381809;28;20048;-72
2021/11/10 00:23:42;;;;;;;17.15;7.00;;;10.40;99.90;;;;;;8373091;28;20049;-72
2021/11/10 00:27:43;;;;;;;12.65;6.57;;;10.40;99.90;;;;;;8368634;28;20392;-72
2021/11/10 00:31:45;;;;;;;18.63;7.05;;;10.40;99.90;;;;;;8360365;28;20107;-72
2021/11/10 00:35:47;;;;;;;15.45;7.45;;;10.40;99.90;;;;;;8368627;28;20045;-72
2021/11/10 00:39:49;;;;;;;14.57;6.57;;;10.40;99.90;;;;;;8363482;28;20049;-72
2021/11/10 00:43:50;;;;;;;15.80;7.32;;;10.40;99.90;;;;;;8367180;28;20052;-72
2021/11/10 00:47:52;;;;;;;15.57;7.20;;;10.40;99.90;;;;;;8366810;28;20049;-73
2021/11/10 00:51:54;;;;;;;14.95;7.70;;;10.40;99.90;;;;;;8363565;28;20056;-72
2021/11/10 00:55:56;;;;;;;14.75;7.03;;;10.40;99.90;;;;;;8368313;28;20120;-72
2021/11/10 00:59:58;;;;;;;18.70;7.78;;;10.30;99.90;;;;;;8362026;28;20040;-72
2021/11/10 01:04:00;;;;;;;17.15;6.80;;;10.30;99.90;;;;;;8368038;28;20045;-72
2021/11/10 01:08:03;;;;;;;18.42;7.85;;;10.30;99.90;;;;;;8366097;28;20044;-73
2021/11/10 01:12:10;;;;;;;12.60;6.95;;;10.30;99.90;;;;;;8403163;28;20053;-72
2021/11/10 01:16:12;;;;;;;15.50;7.55;;;10.30;99.90;;;;;;8369843;28;20048;-71
2021/11/10 01:20:14;;;;;;;17.83;7.72;;;10.30;99.90;;;;;;8371348;28;20499;-72
2021/11/10 01:24:16;;;;;;;17.58;7.65;;;10.30;99.90;;;;;;8361298;28;20052;-72
2021/11/10 01:28:18;;;;;;;13.77;7.90;;;10.20;99.90;;;;;;8368866;28;20082;-73
2021/11/10 01:32:20;;;;;;;17.13;7.13;;;10.30;99.90;;;;;;8368787;28;20607;-73
2021/11/10 01:36:22;;;;;;;14.00;7.32;;;10.20;99.90;;;;;;8375682;28;20052;-72
2021/11/10 01:40:24;;;;;;;14.45;7.53;;;10.20;99.90;;;;;;8386639;28;20044;-73
2021/11/10 01:44:27;;;;;;;15.70;7.20;;;10.20;99.90;;;;;;8352448;28;20057;-72
2021/11/10 01:48:40;;;;;;;16.05;7.57;;;10.20;99.90;;;;;;8373268;28;20072;-71
2021/11/10 01:52:43;;;;;;;16.55;6.47;;;10.20;99.90;;;;;;8372489;28;20048;-71
2021/11/10 01:56:45;;;;;;;16.67;8.00;;;10.10;99.90;;;;;;8371860;28;20370;-72
2021/11/10 02:00:47;;;;;;;15.50;7.65;;;10.00;99.90;;;;;;8365723;28;20044;-72
2021/11/10 02:04:50;;;;;;;14.20;7.05;;;9.90;99.90;;;;;;8366910;28;20060;-71
2021/11/10 02:08:52;;;;;;;17.75;7.88;;;9.80;99.90;;;;;;8362073;28;20057;-72
2021/11/10 02:12:56;;;;;;;18.27;8.38;;;9.60;99.90;;;;;;8366443;28;20045;-72
2021/11/10 02:16:58;;;;;;;20.15;8.30;;;9.50;99.90;;;;;;8372921;28;20059;-71
2021/11/10 02:21:07;;;;;;;22.13;8.90;;;9.30;99.90;;;;;;8375839;28;20403;-72
2021/11/10 02:25:10;;;;;;;18.77;7.95;;;9.20;99.90;;;;;;8370842;28;20415;-72
2021/11/10 02:29:27;;;;;;;19.15;8.27;;;9.10;99.90;;;;;;8394699;28;20049;-72
2021/11/10 02:33:29;;;;;;;16.90;8.63;;;9.00;99.90;;;;;;8360881;28;20060;-72
2021/11/10 02:37:31;;;;;;;22.00;9.05;;;8.90;99.90;;;;;;8379717;28;20519;-72
2021/11/10 02:41:33;;;;;;;21.10;8.20;;;8.80;99.90;;;;;;8367348;28;20190;-72
2021/11/10 02:45:35;;;;;;;18.27;8.70;;;8.70;99.90;;;;;;8373464;28;20041;-72
2021/11/10 02:49:44;;;;;;;22.85;8.30;;;8.70;99.90;;;;;;8364825;28;20152;-73
2021/11/10 02:53:46;;;;;;;17.50;7.97;;;8.60;99.90;;;;;;8383337;28;20087;-73
2021/11/10 02:57:47;;;;;;;15.35;8.18;;;8.60;99.90;;;;;;8361808;28;20049;-72
2021/11/10 03:01:50;;;;;;;23.90;8.90;;;8.60;99.90;;;;;;8368561;28;20044;-72
2021/11/10 03:05:53;;;;;;;;;;;8.60;99.90;;;;;;8365188;28;20000;-72
2021/11/10 03:09:54;;;;;;;;;;;8.60;99.90;;;;;;8384317;28;20003;-71
2021/11/10 03:13:56;;;;;;;;;;;8.60;99.90;;;;;;8376725;28;19920;-72
2021/11/10 03:17:58;;;;;;;;;;;8.60;99.90;;;;;;8371254;28;20230;-72
2021/11/10 03:22:13;;;;;;;;;;;8.60;99.90;;;;;;8366012;28;20223;-72
2021/11/10 03:26:18;;;;;;;;;;;8.50;99.90;;;;;;8373801;28;19921;-72
2021/11/10 03:30:21;;;;;;;;;;;8.40;99.90;;;;;;8371111;28;20379;-71
2021/11/10 03:34:29;;;;;;;;;;;8.20;99.90;;;;;;8381626;28;19921;-71
2021/11/10 03:38:30;;;;;;;;;;;8.10;99.90;;;;;;8375411;28;19920;-72
2021/11/10 03:42:32;;;;;;;;;;;8.10;99.90;;;;;;8375798;28;19927;-72
2021/11/10 03:46:34;;;;;;;;;;;8.10;99.90;;;;;;8384835;28;19927;-71
2021/11/10 03:50:36;;;;;;;;;;;8.20;99.90;;;;;;8373325;28;19921;-72
2021/11/10 03:54:38;;;;;;;;;;;8.20;99.90;;;;;;8372015;28;19921;-72
2021/11/10 03:58:40;;;;;;;;;;;8.30;99.90;;;;;;8361709;28;19925;-72
2021/11/10 04:02:42;;;;;;;;;;;8.30;99.90;;;;;;8362452;28;19928;-72
2021/11/10 04:06:44;;;;;;;;;;;8.30;99.90;;;;;;8368091;28;19932;-72
2021/11/10 04:10:46;;;;;;;;;;;8.30;99.90;;;;;;8373646;28;20042;-72
2021/11/10 04:14:48;;;;;;;;;;;8.30;99.90;;;;;;8374884;28;19921;-72
2021/11/10 04:18:51;;;;;;;;;;;8.30;99.90;;;;;;8380004;28;19932;-72
2021/11/10 04:22:53;;;;;;;;;;;8.30;99.90;;;;;;8365657;28;19921;-71
2021/11/10 04:26:54;;;;;;;;;;;8.30;99.90;;;;;;8356647;28;20691;-72
2021/11/10 04:30:56;;;;;;;;;;;8.30;99.90;;;;;;8367174;28;19974;-71
2021/11/10 04:35:01;;;;;;;;;;;8.30;99.90;;;;;;8379831;28;19943;-71
2021/11/10 04:39:03;;;;;;;;;;;8.30;99.90;;;;;;8378724;28;19927;-71
2021/11/10 04:43:05;;;;;;;;;;;8.30;99.90;;;;;;8374145;28;20027;-72
2021/11/10 04:47:07;;;;;;;;;;;8.30;99.90;;;;;;8388452;28;20269;-72
2021/11/10 04:51:09;;;;;;;;;;;8.30;99.90;;;;;;8379297;28;19928;-72
2021/11/10 04:55:11;;;;;;;;;;;8.30;99.90;;;;;;8371352;28;20469;-72
2021/11/10 04:59:13;;;;;;;;;;;8.30;99.90;;;;;;8366353;28;19944;-72
2021/11/10 05:03:15;;;;;;;;;;;8.30;99.90;;;;;;8370350;28;19932;-72
2021/11/10 05:07:17;;;;;;;;;;;8.30;99.90;;;;;;8368399;28;19921;-72
2021/11/10 05:11:18;;;;;;;;;;;8.30;99.90;;;;;;8362999;28;19985;-71
2021/11/10 05:15:20;;;;;;;;;;;8.30;99.90;;;;;;8372088;28;19925;-71
2021/11/10 05:19:22;;;;;;;;;;;8.30;99.90;;;;;;8362683;28;20384;-72
2021/11/10 05:23:24;;;;;;;;;;;8.30;99.90;;;;;;8371534;28;19920;-71
2021/11/10 05:27:26;;;;;;;;;;;8.20;99.90;;;;;;8373595;28;19936;-71
2021/11/10 05:31:28;;;;;;;;;;;8.20;99.90;;;;;;8369601;28;20299;-72
2021/11/10 05:35:29;;;;;;;;;;;8.10;99.90;;;;;;8372769;28;19924;-72
2021/11/10 05:39:31;;;;;;;;;;;8.10;99.90;;;;;;8355713;28;19925;-71
2021/11/10 05:43:33;;;;;;;;;;;8.00;99.90;;;;;;8367332;28;19926;-72
2021/11/10 05:47:35;;;;;;;;;;;8.00;99.90;;;;;;8382611;28;19921;-72
2021/11/10 05:51:37;;;;;;;;;;;8.00;99.90;;;;;;8352258;28;19924;-72
2021/11/10 05:55:40;;;;;;;;;;;8.00;99.90;;;;;;8398786;28;19921;-72
2021/11/10 05:59:43;;;;;;;;;;;8.00;99.90;;;;;;8350880;28;19921;-71
2021/11/10 06:03:44;;;;;;;;;;;8.00;99.90;;;;;;8368989;28;19924;-71
2021/11/10 06:07:46;;;;;;;;;;;8.00;99.90;;;;;;8375331;28;19920;-71
2021/11/10 06:11:48;;;;;;;;;;;8.00;99.90;;;;;;8354333;28;19925;-72
2021/11/10 06:15:51;;;;;;;;;;;8.00;99.90;;;;;;8368853;28;19931;-72
2021/11/10 06:19:53;;;;;;;;;;;7.90;99.90;;;;;;8398942;28;19979;-72
2021/11/10 06:23:54;;;;;;;;;;;7.90;99.90;;;;;;8382448;28;19947;-72
2021/11/10 06:27:56;;;;;;;;;;;7.90;99.90;;;;;;8371083;28;20007;-72
2021/11/10 06:31:58;;;;;;;;;;;7.90;99.90;;;;;;8360921;28;19929;-71
2021/11/10 06:35:59;;;;;;;;;;;7.90;99.90;;;;;;8351862;28;19928;-72
2021/11/10 06:40:02;;;;;;;;;;;7.90;99.90;;;;;;8362030;28;19920;-72
2021/11/10 06:44:03;;;;;;;;;;;7.90;99.90;;;;;;8363683;28;19924;-72
2021/11/10 06:48:05;;;;;;;;;;;8.00;99.90;;;;;;8384569;28;19931;-72
2021/11/10 06:52:08;;;;;;;;;;;8.00;99.90;;;;;;8403210;28;19921;-72
2021/11/10 06:56:10;;;;;;;;;;;8.00;99.90;;;;;;8390171;28;19925;-71
2021/11/10 07:00:15;;;;;;;;;;;8.00;99.90;;;;;;8367006;28;19928;-72
2021/11/10 07:04:16;;;;;;;;;;;7.90;99.90;;;;;;8377606;28;19920;-72
2021/11/10 07:08:18;;;;;;;;;;;7.90;99.90;;;;;;8355488;28;19920;-72
2021/11/10 07:12:20;;;;;;;;;;;7.80;99.90;;;;;;8372980;28;19963;-72
2021/11/10 07:16:21;;;;;;;;;;;7.80;99.90;;;;;;8370619;28;19920;-72
2021/11/10 07:20:23;;;;;;;;;;;7.80;99.90;;;;;;8367987;28;19924;-72
2021/11/10 07:24:25;;;;;;;;;;;7.80;99.90;;;;;;8371837;28;19931;-71
2021/11/10 07:28:27;;;;;;;;;;;7.80;99.90;;;;;;8378076;28;19924;-72
2021/11/10 07:32:28;;;;;;;;;;;7.80;99.90;;;;;;8362931;28;19929;-72
2021/11/10 07:36:30;;;;;;;;;;;7.80;99.90;;;;;;8389704;28;19925;-71
2021/11/10 07:40:32;;;;;;;;;;;7.80;99.90;;;;;;8380116;28;19921;-71
2021/11/10 07:44:36;;;;;;;;;;;7.80;99.90;;;;;;8391339;28;20364;-71
2021/11/10 07:48:38;;;;;;;;;;;7.90;99.90;;;;;;8388124;28;20399;-71
2021/11/10 07:52:40;;;;;;;;;;;7.90;99.90;;;;;;8368817;28;19944;-71
2021/11/10 07:56:42;;;;;;;;;;;7.90;99.90;;;;;;8361566;28;20344;-72
2021/11/10 08:00:44;;;;;;;;;;;7.90;99.90;;;;;;8330254;28;20360;-72
2021/11/10 08:04:46;;;;;;;;;;;7.90;99.90;;;;;;8356282;28;20284;-72
2021/11/10 08:08:47;;;;;;;;;;;7.80;99.90;;;;;;8332359;28;19921;-71
2021/11/10 08:12:50;;;;;;;;;;;7.80;99.90;;;;;;8325893;28;19928;-72
2021/11/10 08:16:51;;;;;;;;;;;7.80;99.90;;;;;;8331117;28;19967;-72
2021/11/10 08:20:53;;;;;;;;;;;7.80;99.90;;;;;;8327362;28;19968;-72
2021/11/10 08:24:55;;;;;;;;;;;7.80;99.90;;;;;;8346415;28;19924;-71
2021/11/10 08:29:00;;;;;;;;;;;7.80;99.90;;;;;;8332719;28;19943;-72
2021/11/10 08:33:01;;;;;;;;;;;7.80;99.90;;;;;;8326994;28;19928;-71
2021/11/10 08:37:03;;;;;;;;;;;7.90;99.90;;;;;;8341623;28;20034;-72
2021/11/10 08:41:05;;;;;;;;;;;7.90;99.90;;;;;;8337190;28;20610;-71
2021/11/10 08:45:09;;;;;;;;;;;8.00;99.90;;;;;;8332551;28;19928;-72
2021/11/10 08:49:11;;;;;;;;;;;8.00;99.90;;;;;;8337994;28;19952;-71
2021/11/10 08:53:18;;;;;;;;;;;8.00;99.90;;;;;;8334501;28;19955;-72
2021/11/10 08:57:19;;;;;;;;;;;8.10;99.90;;;;;;8334992;28;19925;-72
2021/11/10 09:01:21;;;;;;;;;;;8.10;99.90;;;;;;8340448;28;19936;-72
2021/11/10 09:05:24;;;;;;;;;;;8.20;99.90;;;;;;8322502;28;20008;-72
2021/11/10 09:09:26;;;;;;;;;;;8.20;99.90;;;;;;8336051;28;19924;-72
2021/11/10 09:18:31;;;;;;;;;;;8.40;99.90;;;;;;8324994;28;19963;-71
2021/11/10 09:22:33;;;;;;;;;;;8.50;99.90;;;;;;8346994;28;19929;-72
2021/11/10 09:26:35;;;;;;;;;;;8.50;99.90;;;;;;8337580;28;19920;-71
2021/11/10 09:30:39;;;;;;;;;;;8.70;99.90;;;;;;8335862;28;19940;-72
2021/11/10 09:34:41;;;;;;;;;;;8.80;99.90;;;;;;8334425;28;20285;-72
2021/11/10 09:38:42;;;;;;;;;;;8.80;99.90;;;;;;8343938;28;19921;-72
2021/11/10 09:42:45;;;;;;;;;;;8.90;99.90;;;;;;8322180;28;20429;-72
2021/11/10 09:46:46;;;;;;;;;;;9.00;99.90;;;;;;8323668;28;19921;-71
2021/11/10 09:50:48;;;;;;;;;;;9.10;99.90;;;;;;8327041;28;20295;-71
2021/11/10 09:54:50;;;;;;;;;;;9.30;99.90;;;;;;8339916;28;20371;-72
2021/11/10 09:58:52;;;;;;;;;;;9.30;99.90;;;;;;8323915;28;19921;-71
2021/11/10 10:02:54;;;;;;;;;;;9.40;99.90;;;;;;8325958;28;19979;-71
2021/11/10 10:06:57;;;;;;;;;;;9.50;99.90;;;;;;8333014;28;19924;-72
2021/11/10 10:10:59;;;;;;;;;;;9.50;99.90;;;;;;8338048;28;19924;-72
2021/11/10 10:15:01;;;;;;;;;;;9.60;99.90;;;;;;8324834;28;19936;-72
2021/11/10 10:19:08;;;;;;;;;;;9.50;99.90;;;;;;8324805;28;19920;-72
2021/11/10 10:23:17;;;;;;;;;;;9.50;99.90;;;;;;8326147;28;19928;-72
2021/11/10 10:27:24;;;;;;;;;;;9.60;99.90;;;;;;8321656;28;20384;-72
2021/11/10 10:31:28;;;;;;;13.40;6.50;;;9.60;99.90;;;;;;8326396;28;20487;-71
2021/11/10 10:35:33;;;;;;;;;;;9.70;99.90;;;;;;8331648;28;19927;-72
2021/11/10 10:39:35;;;;;;;;;;;9.70;99.90;;;;;;8330827;28;19925;-72
2021/11/10 10:43:47;;;;;;;20.80;8.40;;;9.70;99.90;;;;;;8326420;28;19921;-72
2021/11/10 10:48:00;;;;;;;14.85;8.00;;;9.80;99.90;;;;;;8327545;28;20045;-72
2021/11/10 10:52:18;;;;;;;17.08;7.88;;;9.90;99.90;;;;;;8343163;28;20049;-72
2021/11/10 10:56:26;;;;;;;13.88;7.22;;;10.00;99.90;;;;;;8344293;28;20074;-72
2021/11/10 11:00:29;;;;;;;;;;;10.00;99.90;;;;;;8343137;28;20041;-73
2021/11/10 11:04:33;;;;;;;15.02;7.15;;;10.10;99.90;;;;;;8340437;28;19960;-72
2021/11/10 11:08:38;;;;;;;15.57;8.13;;;10.20;99.90;;;;;;8361297;28;20083;-72
2021/11/10 11:12:50;;;;;;;16.23;8.50;;;10.20;99.90;;;;;;8331630;28;20045;-72
2021/11/10 11:17:04;;;;;;;20.65;8.73;;;10.20;99.90;;;;;;8335034;28;20048;-72
2021/11/10 11:21:26;;;;;;;16.27;7.60;;;10.30;99.90;;;;;;8331988;28;20499;-72
2021/11/10 11:25:31;;;;;;;18.63;8.40;;;10.30;99.90;;;;;;8334132;28;20058;-72
2021/11/10 11:29:33;;;;;;;16.33;8.85;;;10.30;99.90;;;;;;8328507;28;20107;-72
2021/11/10 11:33:36;;;;;;;15.82;7.78;;;10.40;99.90;;;;;;8324942;28;20057;-73
2021/11/10 11:37:40;;;;;;;20.17;8.80;;;10.40;99.90;;;;;;8327343;28;20505;-73
2021/11/10 11:41:42;;;;;;;21.92;10.10;;;10.40;99.90;;;;;;8334370;28;19929;-72
2021/11/10 11:45:47;;;;;;;16.10;8.25;;;10.40;99.90;;;;;;8339717;28;20046;-72
2021/11/10 11:49:51;;;;;;;17.50;8.38;;;10.50;99.90;;;;;;8336383;28;20131;-73
2021/11/10 11:53:57;;;;;;;17.00;8.93;;;10.50;99.90;;;;;;8340651;28;20056;-72
2021/11/10 11:58:05;;;;;;;15.50;8.52;;;10.60;99.90;;;;;;8336748;28;20098;-72
2021/11/10 12:02:26;;;;;;;17.23;7.72;;;10.60;99.90;;;;;;8334020;28;20052;-72
2021/11/10 12:06:31;;;;;;;16.23;7.85;;;10.70;99.90;;;;;;8328138;28;20276;-72
2021/11/10 12:10:34;;;;;;;;;;;10.70;99.90;;;;;;8330204;28;20045;-72
2021/11/10 12:14:37;;;;;;;;;;;10.80;99.90;;;;;;8335789;28;19929;-71
2021/11/10 12:18:43;;;;;;;;;;;10.80;99.90;;;;;;8348392;28;19982;-72
2021/11/10 12:22:54;;;;;;;;;;;10.80;99.90;;;;;;8336652;28;19925;-72
2021/11/10 12:27:06;;;;;;;;;;;10.90;99.90;;;;;;8346933;28;19933;-72
2021/11/10 12:31:27;;;;;;;;;;;10.90;99.90;;;;;;8349807;28;20431;-72
2021/11/10 12:35:34;;;;;;;;;;;10.90;99.90;;;;;;8330647;28;19956;-72
2021/11/10 12:39:37;;;;;;;;;;;10.90;99.90;;;;;;8339288;28;20408;-72
2021/11/10 12:43:40;;;;;;;;;;;10.90;99.90;;;;;;8332354;28;19986;-71
2021/11/10 12:47:43;;;;;;;;;;;10.90;99.90;;;;;;8339042;28;19929;-72
2021/11/10 12:51:45;;;;;;;;;;;10.90;99.90;;;;;;8334155;28;19925;-71
2021/11/10 12:55:55;;;;;;;;;;;10.90;99.90;;;;;;8330729;28;20365;-72
2021/11/10 13:00:00;;;;;;;;;;;11.00;99.90;;;;;;8324642;28;19971;-71
2021/11/10 13:04:02;;;;;;;;;;;11.00;99.90;;;;;;8329270;28;19983;-72
2021/11/10 13:08:15;;;;;;;;;;;11.00;99.90;;;;;;8328498;28;19925;-72
2021/11/10 13:12:19;;;;;;;;;;;11.00;99.90;;;;;;8325287;28;19925;-71
2021/11/10 13:16:20;;;;;;;;;;;11.00;99.90;;;;;;8323929;28;19920;-71
2021/11/10 13:20:22;;;;;;;;;;;11.10;99.90;;;;;;8324429;28;19921;-72
2021/11/10 13:24:26;;;;;;;;;;;11.10;99.90;;;;;;8329113;28;19936;-71
2021/11/10 13:28:28;;;;;;;;;;;11.10;99.90;;;;;;8307691;28;19929;-71
2021/11/10 13:32:30;;;;;;;;;;;11.10;99.90;;;;;;8342233;28;19975;-72
2021/11/10 13:36:35;;;;;;;;;;;11.10;99.90;;;;;;8328480;28;19935;-72
2021/11/10 13:40:37;;;;;;;;;;;11.10;99.90;;;;;;8329406;28;20446;-72
2021/11/10 13:44:39;;;;;;;;;;;11.10;99.90;;;;;;8339310;28;19921;-71
2021/11/10 13:48:41;;;;;;;;;;;11.10;99.90;;;;;;8339290;28;19928;-72
2021/11/10 13:52:43;;;;;;;;;;;11.00;99.90;;;;;;8325826;28;19933;-71
2021/11/10 13:56:46;;;;;;;;;;;11.00;99.90;;;;;;8330419;28;19932;-72
2021/11/10 14:00:48;;;;;;;;;;;11.10;99.90;;;;;;8331228;28;20248;-72
2021/11/10 14:04:51;;;;;;;;;;;11.10;99.90;;;;;;8325894;28;19959;-72
2021/11/10 14:09:09;;;;;;;;;;;11.10;99.90;;;;;;8327814;28;20375;-72
2021/11/10 14:13:11;;;;;;;;;;;11.10;99.90;;;;;;8329922;28;20043;-72
2021/11/10 14:17:12;;;;;;;;;;;11.10;99.90;;;;;;8333520;28;20291;-72
2021/11/10 14:21:14;;;;;;;;;;;11.10;99.90;;;;;;8345519;28;19928;-72
2021/11/10 14:25:20;;;;;;;;;;;11.10;99.90;;;;;;8346371;28;19928;-71
2021/11/10 14:29:22;;;;;;;;;;;11.00;99.90;;;;;;8331380;28;19983;-72
2021/11/10 14:33:25;;;;;;;;;;;11.10;99.90;;;;;;8327946;28;19921;-72
2021/11/10 14:37:27;;;;;;;;;;;11.10;99.90;;;;;;8328911;28;19921;-72
2021/11/10 14:41:38;;;;;;;;;;;11.10;99.90;;;;;;8335180;28;19927;-72
2021/11/10 14:45:43;;;;;;;;;;;11.10;99.90;;;;;;8334117;28;19921;-72
2021/11/10 14:49:48;;;;;;;;;;;11.10;99.90;;;;;;8333138;28;20312;-72
2021/11/10 14:53:57;;;;;;;;;;;11.10;99.90;;;;;;8327680;28;19921;-72
2021/11/10 14:58:13;;;;;;;;;;;11.10;99.90;;;;;;8331662;28;19925;-72
2021/11/10 15:02:17;;;;;;;;;;;11.10;99.90;;;;;;8340950;28;19921;-72
2021/11/10 15:06:29;;;;;;;;;;;11.10;99.90;;;;;;8338844;28;20396;-72
2021/11/10 15:10:33;;;;;;;;;;;11.10;99.90;;;;;;8328214;28;19921;-72
2021/11/10 15:14:37;;;;;;;;;;;11.10;99.90;;;;;;8329658;28;19921;-71
2021/11/10 15:18:40;;;;;;;;;;;11.10;99.90;;;;;;8331474;28;20360;-72
2021/11/10 15:22:52;;;;;;;;;;;11.10;99.90;;;;;;8337925;28;20427;-71
2021/11/10 15:26:53;;;;;;;;;;;11.10;99.90;;;;;;8334021;28;19928;-72
2021/11/10 15:30:57;;;;;;;;;;;11.10;99.90;;;;;;8337925;28;19994;-71
2021/11/10 15:34:58;;;;;;;;;;;11.10;99.90;;;;;;8328442;28;19929;-72
2021/11/10 15:39:00;;;;;;;;;;;11.00;99.90;;;;;;8327818;28;19929;-72
2021/11/10 15:43:02;;;;;;;;;;;11.00;99.90;;;;;;8333598;28;19925;-71
2021/11/10 15:47:04;;;;;;;;;;;11.00;99.90;;;;;;8334861;28;19925;-71
2021/11/10 15:51:05;;;;;;;;;;;11.00;99.90;;;;;;8345408;28;19933;-72
2021/11/10 15:55:10;;;;;;;;;;;11.00;99.90;;;;;;8336384;28;19924;-72
2021/11/10 15:59:12;;;;;;;;;;;10.90;99.90;;;;;;8341460;28;19974;-71
2021/11/10 16:03:58;;;;;;;;;;;10.90;99.90;;;;;;8329554;28;20509;-71
2021/11/10 16:07:38;;;;;;;;;;;10.90;99.90;;;;;;8328557;28;20019;-72
2021/11/10 16:11:40;;;;;;;;;;;10.90;99.90;;;;;;8331419;28;19951;-72
2021/11/10 16:15:42;;;;;;;;;;;10.90;99.90;;;;;;8340543;28;19966;-71
2021/11/10 16:19:44;;;;;;;;;;;10.90;99.90;;;;;;8337691;28;20291;-73
2021/11/10 16:23:46;;;;;;;;;;;10.90;99.90;;;;;;8332767;28;20282;-72
2021/11/10 16:28:04;;;;;;;;;;;11.00;99.90;;;;;;8327874;28;19921;-72
2021/11/10 16:32:28;;;;;;;;;;;10.90;99.90;;;;;;8325853;28;20031;-72
2021/11/10 16:36:29;;;;;;;;;;;11.00;99.90;;;;;;8329404;28;19929;-72
2021/11/10 16:40:31;;;;;;;;;;;11.00;99.90;;;;;;8339502;28;19921;-72
2021/11/10 16:44:33;;;;;;;;;;;10.90;99.90;;;;;;8327461;28;20558;-72
2021/11/10 16:48:36;;;;;;;;;;;11.00;99.90;;;;;;8325136;28;19940;-71
2021/11/10 16:52:37;;;;;;;;;;;10.90;99.90;;;;;;8322034;28;20296;-72
2021/11/10 16:56:39;;;;;;;;;;;10.90;99.90;;;;;;8352463;28;19935;-72
2021/11/10 17:00:41;;;;;;;;;;;10.90;99.90;;;;;;8340274;28;19925;-72
2021/11/10 17:04:43;;;;;;;;;;;10.80;99.90;;;;;;8340016;28;19928;-72
2021/11/10 17:08:44;;;;;;;;;;;10.80;99.90;;;;;;8340037;28;19979;-72
2021/11/10 17:12:46;;;;;;;;;;;10.80;99.90;;;;;;8324303;28;19921;-72
2021/11/10 17:16:48;;;;;;;;;;;10.80;99.90;;;;;;8343383;28;19928;-72
2021/11/10 17:20:49;;;;;;;;;;;10.80;99.90;;;;;;8348054;28;19921;-72
2021/11/10 17:24:51;;;;;;;;;;;10.80;99.90;;;;;;8335071;28;20427;-72
2021/11/10 17:28:53;;;;;;;;;;;10.80;99.90;;;;;;8323031;28;19921;-71
2021/11/10 17:32:58;;;;;;;;;;;10.80;99.90;;;;;;8325462;28;19967;-71
2021/11/10 17:37:07;;;;;;;;;;;10.70;99.90;;;;;;8328092;28;19929;-71
2021/11/10 17:41:09;;;;;;;;;;;10.70;99.90;;;;;;8330543;28;19927;-72
2021/11/10 17:45:13;;;;;;;;;;;10.70;99.90;;;;;;8332009;28;19920;-71
2021/11/10 17:49:14;;;;;;;;;;;10.70;99.90;;;;;;8326008;28;20356;-72
2021/11/10 17:53:17;;;;;;;;;;;10.70;99.90;;;;;;8339971;28;20372;-72
2021/11/10 17:57:20;;;;;;;;;;;10.70;99.90;;;;;;8325829;28;19928;-72
2021/11/10 18:01:22;;;;;;;;;;;10.70;99.90;;;;;;8324404;28;19971;-72
2021/11/10 18:05:24;;;;;;;;;;;10.60;99.90;;;;;;8325359;28;19975;-72
2021/11/10 18:09:26;;;;;;;;;;;10.70;99.90;;;;;;8320566;28;19932;-72
2021/11/10 18:13:28;;;;;;;;;;;10.70;99.90;;;;;;8345097;28;19925;-72
2021/11/10 18:17:29;;;;;;;;;;;10.70;99.90;;;;;;8325386;28;20261;-72
2021/11/10 18:21:32;;;;;;;;;;;10.70;99.90;;;;;;8326228;28;20273;-71
2021/11/10 18:25:33;;;;;;;;;;;10.70;99.90;;;;;;8337688;28;19924;-72
2021/11/10 18:29:35;;;;;;;;;;;10.70;99.90;;;;;;8339601;28;20292;-71
2021/11/10 18:33:37;;;;;;;;;;;10.70;99.90;;;;;;8337326;28;19979;-71
2021/11/10 18:37:39;;;;;;;;;;;10.70;99.90;;;;;;8323882;28;20077;-72
2021/11/10 18:41:41;;;;;;;;;;;10.70;99.90;;;;;;8324044;28;19921;-72
2021/11/10 18:45:43;;;;;;;;;;;10.70;99.90;;;;;;8336375;28;20327;-72
2021/11/10 18:49:46;;;;;;;;;;;10.70;99.90;;;;;;8317384;28;20381;-72
2021/11/10 18:53:47;;;;;;;;;;;10.60;99.90;;;;;;8325877;28;20330;-72
2021/11/10 18:57:49;;;;;;;;;;;10.70;99.90;;;;;;8321025;28;20156;-72
2021/11/10 19:01:59;;;;;;;;;;;10.60;99.90;;;;;;8329864;28;19933;-72
2021/11/10 19:22:45;;;;;;;;;;;10.60;99.90;;;;;;8325736;28;19928;-72
2021/11/10 19:26:49;;;;;;;;;;;10.60;99.90;;;;;;8329009;28;19991;-72
2021/11/10 19:30:51;;;;;;;;;;;10.60;99.90;;;;;;8327069;28;19924;-71
2021/11/10 19:34:52;;;;;;;;;;;10.60;99.90;;;;;;8333415;28;19990;-71
2021/11/10 19:38:54;;;;;;;;;;;10.60;99.90;;;;;;8325875;28;19921;-72
2021/11/10 19:42:56;;;;;;;;;;;10.60;99.90;;;;;;8332077;28;19932;-72
2021/11/10 19:46:58;;;;;;;;;;;10.60;99.90;;;;;;8328981;28;19971;-72
2021/11/10 19:51:00;;;;;;;;;;;10.60;99.90;;;;;;8342904;28;19925;-71
2021/11/10 19:55:04;;;;;;;;;;;10.60;99.90;;;;;;8327337;28;19925;-72
2021/11/10 19:59:06;;;;;;;;;;;10.60;99.90;;;;;;8343055;28;20284;-72
2021/11/10 20:03:09;;;;;;;;;;;10.50;99.90;;;;;;8328502;28;20001;-72
2021/11/10 20:07:10;;;;;;;;;;;10.60;99.90;;;;;;8327627;28;20399;-72
2021/11/10 20:11:13;;;;;;;;;;;10.50;99.90;;;;;;8327411;28;19976;-71
2021/11/10 20:15:17;;;;;;;;;;;10.50;99.90;;;;;;8329886;28;20443;-72
2021/11/10 20:19:19;;;;;;;;;;;10.50;99.90;;;;;;8331020;28;19921;-72
2021/11/10 20:23:21;;;;;;;;;;;10.50;99.90;;;;;;8329478;28;19940;-72
2021/11/10 20:27:29;;;;;;;;;;;10.50;99.90;;;;;;8323418;28;20387;-72
2021/11/10 20:31:30;;;;;;;;;;;10.50;99.90;;;;;;8326813;28;19921;-71
2021/11/10 20:35:32;;;;;;;;;;;10.50;99.90;;;;;;8328589;28;19921;-72
2021/11/10 20:39:34;;;;;;;;;;;10.50;99.90;;;;;;8327246;28;20237;-72
2021/11/10 20:43:38;;;;;;;;;;;10.50;99.90;;;;;;8331012;28;19971;-72
2021/11/10 20:47:39;;;;;;;;;;;10.50;99.90;;;;;;8356992;28;20580;-72
2021/11/10 20:51:41;;;;;;;;;;;10.50;99.90;;;;;;8327408;28;19921;-72
2021/11/10 20:55:44;;;;;;;;;;;10.50;99.90;;;;;;8325832;28;19921;-71
2021/11/10 20:59:46;;;;;;;;;;;10.50;99.90;;;;;;8341284;28;20373;-71
2021/11/10 21:03:48;;;;;;;;;;;10.50;99.90;;;;;;8342811;28;19925;-72
2021/11/10 21:07:49;;;;;;;;;;;10.50;99.90;;;;;;8325541;28;19921;-72
2021/11/10 21:11:52;;;;;;;;;;;10.40;99.90;;;;;;8331581;28;19928;-72
2021/11/10 21:15:53;;;;;;;;;;;10.40;99.90;;;;;;8326197;28;19929;-71
2021/11/10 21:19:55;;;;;;;23.30;12.90;;;10.40;99.90;;;;;;8350024;28;20117;-71
2021/11/10 21:23:57;;;;;;;;;;;10.40;99.90;;;;;;8332448;28;20369;-73
2021/11/10 21:27:59;;;;;;;23.10;12.73;;;10.40;99.90;;;;;;8325478;28;19928;-72
2021/11/10 21:32:01;;;;;;;;;;;10.40;99.90;;;;;;8326072;28;20053;-72
2021/11/10 21:36:08;;;;;;;19.70;10.50;;;10.40;99.90;;;;;;8339176;28;20124;-72
2021/11/10 21:40:13;;;;;;;22.00;12.00;;;10.40;99.90;;;;;;8324206;28;19920;-72
2021/11/10 21:44:16;;;;;;;24.98;12.68;;;10.40;99.90;;;;;;8320998;28;20132;-72
2021/11/10 21:48:19;;;;;;;25.45;12.80;;;10.40;99.90;;;;;;8322114;28;20468;-72
2021/11/10 21:52:21;;;;;;;24.52;12.38;;;10.30;99.90;;;;;;8322128;28;20666;-72
2021/11/10 21:56:22;;;;;;;24.20;12.07;;;10.30;99.90;;;;;;8322631;28;20069;-71
2021/11/10 22:00:27;;;;;;;24.45;12.07;;;10.30;99.90;;;;;;8324228;28;20100;-72
2021/11/10 22:04:29;;;;;;;27.50;12.50;;;10.30;99.90;;;;;;8391551;28;20048;-73
2021/11/10 22:08:33;;;;;;;23.42;12.18;;;10.30;99.90;;;;;;8365518;28;20308;-72
2021/11/10 22:12:35;;;;;;;18.70;10.98;;;10.20;99.90;;;;;;8363124;28;20103;-73
2021/11/10 22:16:37;;;;;;;20.50;11.63;;;10.30;99.90;;;;;;8359033;28;20746;-72
2021/11/10 22:20:40;;;;;;;23.23;11.43;;;10.30;99.90;;;;;;8377029;28;19986;-72
2021/11/10 22:24:42;;;;;;;22.58;12.02;;;10.20;99.90;;;;;;8367119;28;20405;-72
2021/11/10 22:28:44;;;;;;;21.58;11.95;;;10.20;99.90;;;;;;8369300;28;20120;-72
2021/11/10 22:32:46;;;;;;;21.88;12.43;;;10.20;99.90;;;;;;8359499;28;20053;-72
2021/11/10 22:36:48;;;;;;;23.17;11.98;;;10.20;99.90;;;;;;8363457;28;20053;-72
2021/11/10 22:40:49;;;;;;;;;;;10.20;99.90;;;;;;8376899;28;20051;-71
2021/11/10 22:44:52;;;;;;;21.00;10.85;;;10.20;99.90;;;;;;8367266;28;20261;-72
2021/11/10 22:48:54;;;;;;;;;;;10.20;99.90;;;;;;8371286;28;20381;-72
2021/11/10 22:52:56;;;;;;;;;;;10.30;99.90;;;;;;8365134;28;19925;-72
2021/11/10 22:56:58;;;;;;;23.50;12.00;;;10.20;99.90;;;;;;8362503;28;19921;-72
2021/11/10 23:01:00;;;;;;;;;;;10.20;99.90;;;;;;8361684;28;20717;-72
2021/11/10 23:05:02;;;;;;;20.98;12.30;;;10.20;99.90;;;;;;8369485;28;20350;-72
2021/11/10 23:09:04;;;;;;;;;;;10.20;99.90;;;;;;8399494;28;21710;-72
2021/11/10 23:13:06;;;;;;;;;;;10.20;99.90;;;;;;8371058;28;19971;-71
2021/11/10 23:17:08;;;;;;;21.00;11.73;;;10.20;99.90;;;;;;8368859;28;19924;-71